sensor_id;sensor_type;location;lat;lon;timestamp;P1;P2;P0
65360;PMS5003;51958;55.018;73.536;2023-05-16T00:00:56;49.33;39.33;26.00
65360;PMS5003;51958;55.018;73.536;2023-05-16T00:03:58;52.33;40.33;25.33
65360;PMS5003;51958;55.018;73.536;2023-05-16T00:06:59;53.33;40.67;26.67
65360;PMS5003;51958;55.018;73.536;2023-05-16T00:10:00;54.00;42.00;27.00
65360;PMS5003;51958;55.018;73.536;2023-05-16T00:13:01;53.33;41.00;27.00
65360;PMS5003;51958;55.018;73.536;2023-05-16T00:16:02;54.00;41.67;26.67
65360;PMS5003;51958;55.018;73.536;2023-05-16T00:19:06;54.00;42.00;27.00
65360;PMS5003;51958;55.018;73.536;2023-05-16T00:22:08;54.00;41.33;27.00
65360;PMS5003;51958;55.018;73.536;2023-05-16T00:25:09;54.00;41.67;27.00
65360;PMS5003;51958;55.018;73.536;2023-05-16T00:28:10;55.00;43.00;28.00
65360;PMS5003;51958;55.018;73.536;2023-05-16T00:31:11;55.00;44.00;27.67
65360;PMS5003;51958;55.018;73.536;2023-05-16T00:34:12;57.33;44.33;28.67
65360;PMS5003;51958;55.018;73.536;2023-05-16T00:37:13;57.67;45.33;29.00
65360;PMS5003;51958;55.018;73.536;2023-05-16T00:40:14;60.00;46.33;30.00
65360;PMS5003;51958;55.018;73.536;2023-05-16T00:43:18;61.00;48.33;31.00
65360;PMS5003;51958;55.018;73.536;2023-05-16T00:46:19;63.00;50.33;32.33
65360;PMS5003;51958;55.018;73.536;2023-05-16T00:49:22;65.00;53.00;34.50
65360;PMS5003;51958;55.018;73.536;2023-05-16T00:52:25;66.67;55.33;36.00
65360;PMS5003;51958;55.018;73.536;2023-05-16T00:55:26;68.33;58.33;38.00
65360;PMS5003;51958;55.018;73.536;2023-05-16T00:58:28;69.33;59.67;39.33
65360;PMS5003;51958;55.018;73.536;2023-05-16T01:01:30;70.00;61.00;41.00
65360;PMS5003;51958;55.018;73.536;2023-05-16T01:04:31;71.50;63.25;42.50
65360;PMS5003;51958;55.018;73.536;2023-05-16T01:07:34;74.25;68.00;45.25
65360;PMS5003;51958;55.018;73.536;2023-05-16T01:10:38;77.00;71.33;47.33
65360;PMS5003;51958;55.018;73.536;2023-05-16T01:17:08;79.25;75.50;50.50
65360;PMS5003;51958;55.018;73.536;2023-05-16T01:20:16;81.00;76.50;51.50
65360;PMS5003;51958;55.018;73.536;2023-05-16T01:23:27;81.00;77.75;54.00
65360;PMS5003;51958;55.018;73.536;2023-05-16T01:26:33;80.25;77.75;52.50
65360;PMS5003;51958;55.018;73.536;2023-05-16T01:29:35;84.25;80.50;53.00
65360;PMS5003;51958;55.018;73.536;2023-05-16T01:32:38;90.00;84.67;56.33
65360;PMS5003;51958;55.018;73.536;2023-05-16T01:35:42;96.50;89.00;60.25
65360;PMS5003;51958;55.018;73.536;2023-05-16T01:48:07;125.25;117.50;80.50
65360;PMS5003;51958;55.018;73.536;2023-05-16T01:51:10;130.25;122.25;82.50
65360;PMS5003;51958;55.018;73.536;2023-05-16T01:54:13;134.00;126.25;84.50
65360;PMS5003;51958;55.018;73.536;2023-05-16T01:57:16;130.50;122.50;82.00
65360;PMS5003;51958;55.018;73.536;2023-05-16T02:00:19;129.00;122.00;82.00
65360;PMS5003;51958;55.018;73.536;2023-05-16T02:03:20;123.50;115.75;78.00
65360;PMS5003;51958;55.018;73.536;2023-05-16T02:06:21;117.00;110.00;75.00
65360;PMS5003;51958;55.018;73.536;2023-05-16T02:09:23;110.50;104.00;71.00
65360;PMS5003;51958;55.018;73.536;2023-05-16T02:12:26;102.67;97.67;67.00
65360;PMS5003;51958;55.018;73.536;2023-05-16T02:15:27;97.00;92.25;63.50
65360;PMS5003;51958;55.018;73.536;2023-05-16T02:18:29;93.00;87.00;61.50
65360;PMS5003;51958;55.018;73.536;2023-05-16T02:21:31;85.00;82.00;58.00
65360;PMS5003;51958;55.018;73.536;2023-05-16T02:24:32;81.00;78.00;55.00
65360;PMS5003;51958;55.018;73.536;2023-05-16T02:27:33;76.50;73.00;51.00
65360;PMS5003;51958;55.018;73.536;2023-05-16T02:30:34;76.00;69.00;48.00
65360;PMS5003;51958;55.018;73.536;2023-05-16T02:33:35;72.25;64.75;45.00
65360;PMS5003;51958;55.018;73.536;2023-05-16T02:36:36;68.00;57.00;39.25
65360;PMS5003;51958;55.018;73.536;2023-05-16T02:39:37;66.00;54.00;37.00
65360;PMS5003;51958;55.018;73.536;2023-05-16T02:42:39;66.00;53.50;37.00
65360;PMS5003;51958;55.018;73.536;2023-05-16T02:45:40;66.00;54.00;38.00
65360;PMS5003;51958;55.018;73.536;2023-05-16T02:48:41;65.75;54.25;37.00
65360;PMS5003;51958;55.018;73.536;2023-05-16T02:51:42;66.00;53.00;36.00
65360;PMS5003;51958;55.018;73.536;2023-05-16T02:54:43;65.00;52.00;36.75
65360;PMS5003;51958;55.018;73.536;2023-05-16T02:57:44;61.00;50.00;33.50
65360;PMS5003;51958;55.018;73.536;2023-05-16T03:00:46;60.00;47.33;32.00
65360;PMS5003;51958;55.018;73.536;2023-05-16T03:03:47;59.50;47.00;32.00
65360;PMS5003;51958;55.018;73.536;2023-05-16T03:06:48;56.75;45.00;31.00
65360;PMS5003;51958;55.018;73.536;2023-05-16T03:09:51;54.75;44.00;30.00
65360;PMS5003;51958;55.018;73.536;2023-05-16T03:12:52;54.00;43.50;29.75
65360;PMS5003;51958;55.018;73.536;2023-05-16T03:15:53;54.00;43.00;30.00
65360;PMS5003;51958;55.018;73.536;2023-05-16T03:18:54;51.00;41.00;27.25
65360;PMS5003;51958;55.018;73.536;2023-05-16T03:21:55;49.00;41.00;27.00
65360;PMS5003;51958;55.018;73.536;2023-05-16T03:24:57;48.50;40.00;27.00
65360;PMS5003;51958;55.018;73.536;2023-05-16T03:27:58;48.00;39.00;26.00
65360;PMS5003;51958;55.018;73.536;2023-05-16T03:30:59;46.00;37.67;26.00
65360;PMS5003;51958;55.018;73.536;2023-05-16T03:34:00;42.00;37.00;26.00
65360;PMS5003;51958;55.018;73.536;2023-05-16T03:37:02;42.00;36.50;26.00
65360;PMS5003;51958;55.018;73.536;2023-05-16T03:40:03;43.50;37.00;25.00
65360;PMS5003;51958;55.018;73.536;2023-05-16T03:43:07;42.00;35.00;25.00
65360;PMS5003;51958;55.018;73.536;2023-05-16T03:46:08;40.00;34.25;23.00
65360;PMS5003;51958;55.018;73.536;2023-05-16T03:49:09;38.00;33.00;23.00
65360;PMS5003;51958;55.018;73.536;2023-05-16T03:52:10;33.00;29.75;21.00
65360;PMS5003;51958;55.018;73.536;2023-05-16T03:55:11;29.00;27.00;20.00
65360;PMS5003;51958;55.018;73.536;2023-05-16T03:58:14;30.25;27.75;19.00
65360;PMS5003;51958;55.018;73.536;2023-05-16T04:01:16;27.33;26.00;17.33
65360;PMS5003;51958;55.018;73.536;2023-05-16T04:04:17;26.00;24.00;17.00
65360;PMS5003;51958;55.018;73.536;2023-05-16T04:07:18;27.00;24.50;16.00
65360;PMS5003;51958;55.018;73.536;2023-05-16T04:10:19;26.00;24.00;16.00
65360;PMS5003;51958;55.018;73.536;2023-05-16T04:13:20;25.00;24.25;15.00
65360;PMS5003;51958;55.018;73.536;2023-05-16T04:16:21;26.50;26.00;16.00
65360;PMS5003;51958;55.018;73.536;2023-05-16T04:19:22;22.25;22.00;15.00
65360;PMS5003;51958;55.018;73.536;2023-05-16T04:22:23;21.00;18.33;13.00
65360;PMS5003;51958;55.018;73.536;2023-05-16T04:25:24;19.00;16.00;7.00
65360;PMS5003;51958;55.018;73.536;2023-05-16T04:28:25;16.75;11.25;5.00
65360;PMS5003;51958;55.018;73.536;2023-05-16T04:31:26;13.75;8.25;4.00
65360;PMS5003;51958;55.018;73.536;2023-05-16T04:34:27;13.00;11.00;5.50
65360;PMS5003;51958;55.018;73.536;2023-05-16T04:37:28;7.00;7.00;4.00
65360;PMS5003;51958;55.018;73.536;2023-05-16T04:40:29;12.50;9.75;5.00
65360;PMS5003;51958;55.018;73.536;2023-05-16T04:43:31;13.75;11.00;4.00
65360;PMS5003;51958;55.018;73.536;2023-05-16T04:46:33;14.00;10.00;4.00
65360;PMS5003;51958;55.018;73.536;2023-05-16T04:49:34;12.00;11.00;5.00
65360;PMS5003;51958;55.018;73.536;2023-05-16T04:52:35;12.67;11.00;3.00
65360;PMS5003;51958;55.018;73.536;2023-05-16T04:55:38;9.00;8.00;2.00
65360;PMS5003;51958;55.018;73.536;2023-05-16T04:58:39;8.00;6.25;3.00
65360;PMS5003;51958;55.018;73.536;2023-05-16T05:01:40;9.00;7.00;2.60
65360;PMS5003;51958;55.018;73.536;2023-05-16T05:04:41;8.50;7.25;3.00
65360;PMS5003;51958;55.018;73.536;2023-05-16T05:07:42;8.00;8.00;4.00
65360;PMS5003;51958;55.018;73.536;2023-05-16T05:10:43;7.00;6.00;4.00
65360;PMS5003;51958;55.018;73.536;2023-05-16T05:13:44;6.00;6.00;3.00
65360;PMS5003;51958;55.018;73.536;2023-05-16T05:16:45;7.25;7.25;3.25
65360;PMS5003;51958;55.018;73.536;2023-05-16T05:19:46;6.00;6.00;4.00
65360;PMS5003;51958;55.018;73.536;2023-05-16T05:22:48;7.00;6.00;4.00
65360;PMS5003;51958;55.018;73.536;2023-05-16T05:25:49;4.00;4.00;2.00
65360;PMS5003;51958;55.018;73.536;2023-05-16T05:28:50;7.00;6.00;3.00
65360;PMS5003;51958;55.018;73.536;2023-05-16T05:31:52;7.00;6.00;3.00
65360;PMS5003;51958;55.018;73.536;2023-05-16T05:34:53;6.00;4.75;3.00
65360;PMS5003;51958;55.018;73.536;2023-05-16T05:37:54;6.00;5.00;3.00
65360;PMS5003;51958;55.018;73.536;2023-05-16T05:40:56;6.00;6.00;3.00
65360;PMS5003;51958;55.018;73.536;2023-05-16T05:43:57;5.00;4.00;2.00
65360;PMS5003;51958;55.018;73.536;2023-05-16T05:46:58;6.25;6.25;3.00
65360;PMS5003;51958;55.018;73.536;2023-05-16T05:49:59;6.00;6.00;3.00
65360;PMS5003;51958;55.018;73.536;2023-05-16T05:53:00;5.00;5.00;4.00
65360;PMS5003;51958;55.018;73.536;2023-05-16T05:56:01;7.00;6.00;2.00
65360;PMS5003;51958;55.018;73.536;2023-05-16T05:59:02;5.00;5.00;3.00
65360;PMS5003;51958;55.018;73.536;2023-05-16T06:02:08;5.00;5.00;2.00
65360;PMS5003;51958;55.018;73.536;2023-05-16T06:05:09;4.25;4.25;2.00
65360;PMS5003;51958;55.018;73.536;2023-05-16T06:08:10;5.50;5.50;3.00
65360;PMS5003;51958;55.018;73.536;2023-05-16T06:11:11;6.25;5.50;2.50
65360;PMS5003;51958;55.018;73.536;2023-05-16T06:14:13;6.00;6.00;3.00
65360;PMS5003;51958;55.018;73.536;2023-05-16T06:17:14;6.75;5.75;2.00
65360;PMS5003;51958;55.018;73.536;2023-05-16T06:20:15;8.00;7.00;3.00
65360;PMS5003;51958;55.018;73.536;2023-05-16T06:23:16;7.00;7.00;3.00
65360;PMS5003;51958;55.018;73.536;2023-05-16T06:26:17;6.00;6.00;3.00
65360;PMS5003;51958;55.018;73.536;2023-05-16T06:29:18;4.00;4.00;2.00
65360;PMS5003;51958;55.018;73.536;2023-05-16T06:32:24;5.00;5.00;1.00
65360;PMS5003;51958;55.018;73.536;2023-05-16T06:35:25;7.00;5.00;2.00
65360;PMS5003;51958;55.018;73.536;2023-05-16T06:38:26;4.75;4.00;2.00
65360;PMS5003;51958;55.018;73.536;2023-05-16T06:41:27;2.00;2.00;1.00
65360;PMS5003;51958;55.018;73.536;2023-05-16T06:44:28;4.00;2.00;0.00
65360;PMS5003;51958;55.018;73.536;2023-05-16T06:47:29;3.00;2.25;0.00
65360;PMS5003;51958;55.018;73.536;2023-05-16T06:50:30;2.00;2.00;0.00
65360;PMS5003;51958;55.018;73.536;2023-05-16T06:53:31;1.33;1.00;0.00
65360;PMS5003;51958;55.018;73.536;2023-05-16T06:56:32;1.50;1.50;0.00
65360;PMS5003;51958;55.018;73.536;2023-05-16T06:59:33;1.00;1.00;0.00
65360;PMS5003;51958;55.018;73.536;2023-05-16T07:02:40;2.00;2.00;0.00
65360;PMS5003;51958;55.018;73.536;2023-05-16T07:05:41;2.75;2.75;0.00
65360;PMS5003;51958;55.018;73.536;2023-05-16T07:08:42;2.00;2.00;0.00
65360;PMS5003;51958;55.018;73.536;2023-05-16T07:11:43;2.00;1.00;0.00
65360;PMS5003;51958;55.018;73.536;2023-05-16T07:14:44;2.00;1.00;0.00
65360;PMS5003;51958;55.018;73.536;2023-05-16T07:17:46;2.00;2.00;0.00
65360;PMS5003;51958;55.018;73.536;2023-05-16T07:20:47;1.00;1.00;0.00
65360;PMS5003;51958;55.018;73.536;2023-05-16T07:23:48;0.67;0.67;0.00
65360;PMS5003;51958;55.018;73.536;2023-05-16T07:26:49;2.00;2.00;0.00
65360;PMS5003;51958;55.018;73.536;2023-05-16T07:29:52;2.00;2.00;0.00
65360;PMS5003;51958;55.018;73.536;2023-05-16T07:33:01;3.00;2.25;0.00
65360;PMS5003;51958;55.018;73.536;2023-05-16T07:36:07;3.00;2.00;0.00
65360;PMS5003;51958;55.018;73.536;2023-05-16T07:39:08;0.00;0.00;0.00
65360;PMS5003;51958;55.018;73.536;2023-05-16T07:42:09;1.00;0.00;0.00
65360;PMS5003;51958;55.018;73.536;2023-05-16T07:45:11;1.00;0.00;0.00
65360;PMS5003;51958;55.018;73.536;2023-05-16T07:48:12;1.00;0.00;0.00
65360;PMS5003;51958;55.018;73.536;2023-05-16T07:51:13;1.00;0.00;0.00
65360;PMS5003;51958;55.018;73.536;2023-05-16T07:54:14;2.00;2.00;0.00
65360;PMS5003;51958;55.018;73.536;2023-05-16T07:57:15;3.00;2.00;0.00
65360;PMS5003;51958;55.018;73.536;2023-05-16T08:00:16;3.00;2.25;0.00
65360;PMS5003;51958;55.018;73.536;2023-05-16T08:03:17;2.25;1.25;0.00
65360;PMS5003;51958;55.018;73.536;2023-05-16T08:06:18;1.00;1.00;0.00
65360;PMS5003;51958;55.018;73.536;2023-05-16T08:09:20;2.00;2.00;0.00
65360;PMS5003;51958;55.018;73.536;2023-05-16T08:12:21;3.00;2.00;0.00
65360;PMS5003;51958;55.018;73.536;2023-05-16T08:15:22;3.00;3.00;0.00
65360;PMS5003;51958;55.018;73.536;2023-05-16T08:18:23;3.00;3.00;1.00
65360;PMS5003;51958;55.018;73.536;2023-05-16T08:21:34;5.00;5.00;2.00
65360;PMS5003;51958;55.018;73.536;2023-05-16T08:24:35;5.00;4.00;2.00
65360;PMS5003;51958;55.018;73.536;2023-05-16T08:27:36;3.50;3.50;2.00
65360;PMS5003;51958;55.018;73.536;2023-05-16T08:30:38;4.75;4.75;1.00
65360;PMS5003;51958;55.018;73.536;2023-05-16T08:33:45;5.00;4.00;2.00
65360;PMS5003;51958;55.018;73.536;2023-05-16T08:36:46;4.00;4.00;2.00
65360;PMS5003;51958;55.018;73.536;2023-05-16T08:39:47;5.00;4.00;2.00
65360;PMS5003;51958;55.018;73.536;2023-05-16T08:42:48;5.75;5.25;2.00
65360;PMS5003;51958;55.018;73.536;2023-05-16T08:45:49;4.25;4.00;1.00
65360;PMS5003;51958;55.018;73.536;2023-05-16T08:48:50;2.75;2.50;1.00
65360;PMS5003;51958;55.018;73.536;2023-05-16T08:51:55;3.50;3.00;1.00
65360;PMS5003;51958;55.018;73.536;2023-05-16T08:54:58;3.67;3.33;2.00
65360;PMS5003;51958;55.018;73.536;2023-05-16T08:58:01;3.75;3.50;2.00
65360;PMS5003;51958;55.018;73.536;2023-05-16T09:01:05;3.00;3.00;1.00
65360;PMS5003;51958;55.018;73.536;2023-05-16T09:04:14;3.00;2.00;1.00
65360;PMS5003;51958;55.018;73.536;2023-05-16T09:07:16;0.00;0.00;0.00
65360;PMS5003;51958;55.018;73.536;2023-05-16T09:10:17;0.00;0.00;0.00
65360;PMS5003;51958;55.018;73.536;2023-05-16T09:18:10;0.00;0.00;0.00
65360;PMS5003;51958;55.018;73.536;2023-05-16T09:21:12;0.00;0.00;0.00
65360;PMS5003;51958;55.018;73.536;2023-05-16T09:24:15;1.00;0.00;0.00
65360;PMS5003;51958;55.018;73.536;2023-05-16T09:27:17;0.00;0.00;0.00
65360;PMS5003;51958;55.018;73.536;2023-05-16T09:30:20;0.00;0.00;0.00
65360;PMS5003;51958;55.018;73.536;2023-05-16T09:33:22;0.00;0.00;0.00
65360;PMS5003;51958;55.018;73.536;2023-05-16T09:36:24;0.00;0.00;0.00
65360;PMS5003;51958;55.018;73.536;2023-05-16T09:39:26;0.00;0.00;0.00
65360;PMS5003;51958;55.018;73.536;2023-05-16T09:42:27;0.00;0.00;0.00
65360;PMS5003;51958;55.018;73.536;2023-05-16T09:45:28;0.00;0.00;0.00
65360;PMS5003;51958;55.018;73.536;2023-05-16T09:48:31;0.00;0.00;0.00
65360;PMS5003;51958;55.018;73.536;2023-05-16T09:51:32;0.00;0.00;0.00
65360;PMS5003;51958;55.018;73.536;2023-05-16T09:54:34;1.00;0.00;0.00
65360;PMS5003;51958;55.018;73.536;2023-05-16T09:57:36;1.00;0.00;0.00
65360;PMS5003;51958;55.018;73.536;2023-05-16T10:00:37;1.00;1.00;0.00
65360;PMS5003;51958;55.018;73.536;2023-05-16T10:03:40;1.00;1.00;0.00
65360;PMS5003;51958;55.018;73.536;2023-05-16T10:06:42;1.00;1.00;0.00
65360;PMS5003;51958;55.018;73.536;2023-05-16T10:09:43;0.00;0.00;0.00
65360;PMS5003;51958;55.018;73.536;2023-05-16T10:12:44;0.00;0.00;0.00
65360;PMS5003;51958;55.018;73.536;2023-05-16T10:15:46;0.00;0.00;0.00
65360;PMS5003;51958;55.018;73.536;2023-05-16T10:18:48;0.00;0.00;0.00
65360;PMS5003;51958;55.018;73.536;2023-05-16T10:21:53;0.00;0.00;0.00
65360;PMS5003;51958;55.018;73.536;2023-05-16T10:24:59;0.00;0.00;0.00
65360;PMS5003;51958;55.018;73.536;2023-05-16T10:28:04;0.00;0.00;0.00
65360;PMS5003;51958;55.018;73.536;2023-05-16T10:31:07;0.00;0.00;0.00
65360;PMS5003;51958;55.018;73.536;2023-05-16T10:34:08;0.00;0.00;0.00
65360;PMS5003;51958;55.018;73.536;2023-05-16T10:37:09;0.00;0.00;0.00
65360;PMS5003;51958;55.018;73.536;2023-05-16T10:40:11;1.00;1.00;0.00
65360;PMS5003;51958;55.018;73.536;2023-05-16T10:43:14;0.00;0.00;0.00
65360;PMS5003;51958;55.018;73.536;2023-05-16T10:46:23;0.00;0.00;0.00
65360;PMS5003;51958;55.018;73.536;2023-05-16T10:49:26;0.00;0.00;0.00
65360;PMS5003;51958;55.018;73.536;2023-05-16T10:52:33;0.00;0.00;0.00
65360;PMS5003;51958;55.018;73.536;2023-05-16T10:55:44;0.00;0.00;0.00
65360;PMS5003;51958;55.018;73.536;2023-05-16T10:58:46;1.00;1.00;0.00
65360;PMS5003;51958;55.018;73.536;2023-05-16T11:01:50;1.25;1.00;0.00
65360;PMS5003;51958;55.018;73.536;2023-05-16T11:04:52;4.00;3.00;0.00
65360;PMS5003;51958;55.018;73.536;2023-05-16T11:08:06;12.00;10.33;6.33
65360;PMS5003;51958;55.018;73.536;2023-05-16T11:17:37;23.00;23.00;17.33
65360;PMS5003;51958;55.018;73.536;2023-05-16T11:20:39;24.50;24.00;19.00
65360;PMS5003;51958;55.018;73.536;2023-05-16T11:23:40;23.00;23.00;18.00
65360;PMS5003;51958;55.018;73.536;2023-05-16T11:26:41;25.00;24.67;19.00
65360;PMS5003;51958;55.018;73.536;2023-05-16T11:29:42;31.25;29.00;20.50
65360;PMS5003;51958;55.018;73.536;2023-05-16T11:32:44;34.00;30.75;22.00
65360;PMS5003;51958;55.018;73.536;2023-05-16T11:36:03;40.00;33.50;23.50
65360;PMS5003;51958;55.018;73.536;2023-05-16T11:39:08;41.67;34.67;25.00
65360;PMS5003;51958;55.018;73.536;2023-05-16T11:42:10;38.00;34.00;25.00
65360;PMS5003;51958;55.018;73.536;2023-05-16T11:45:15;36.00;33.00;24.00
65360;PMS5003;51958;55.018;73.536;2023-05-16T11:48:17;38.50;33.00;23.25
65360;PMS5003;51958;55.018;73.536;2023-05-16T11:51:18;41.50;35.00;25.00
65360;PMS5003;51958;55.018;73.536;2023-05-16T11:54:20;45.00;37.50;27.00
65360;PMS5003;51958;55.018;73.536;2023-05-16T11:57:21;46.00;39.00;28.00
65360;PMS5003;51958;55.018;73.536;2023-05-16T12:00:22;45.25;38.00;27.00
65360;PMS5003;51958;55.018;73.536;2023-05-16T12:03:26;48.75;40.00;27.25
65360;PMS5003;51958;55.018;73.536;2023-05-16T12:06:27;48.00;40.00;28.00
65360;PMS5003;51958;55.018;73.536;2023-05-16T12:09:28;47.00;38.00;28.00
65360;PMS5003;51958;55.018;73.536;2023-05-16T12:12:30;44.25;38.00;27.00
65360;PMS5003;51958;55.018;73.536;2023-05-16T12:15:31;47.25;39.00;27.00
65360;PMS5003;51958;55.018;73.536;2023-05-16T12:18:33;48.00;40.00;28.00
65360;PMS5003;51958;55.018;73.536;2023-05-16T12:21:34;48.00;40.25;28.00
65360;PMS5003;51958;55.018;73.536;2023-05-16T12:24:35;50.50;42.00;29.00
65360;PMS5003;51958;55.018;73.536;2023-05-16T12:27:41;52.00;42.00;30.00
65360;PMS5003;51958;55.018;73.536;2023-05-16T12:30:43;51.25;42.75;30.00
65360;PMS5003;51958;55.018;73.536;2023-05-16T12:33:45;51.00;43.00;30.00
65360;PMS5003;51958;55.018;73.536;2023-05-16T12:36:49;50.00;42.00;29.00
65360;PMS5003;51958;55.018;73.536;2023-05-16T12:39:51;49.00;41.00;29.00
65360;PMS5003;51958;55.018;73.536;2023-05-16T12:42:59;48.50;40.25;28.50
65360;PMS5003;51958;55.018;73.536;2023-05-16T12:46:00;51.00;41.75;29.00
65360;PMS5003;51958;55.018;73.536;2023-05-16T12:49:01;50.00;41.00;29.00
65360;PMS5003;51958;55.018;73.536;2023-05-16T12:52:04;49.00;41.00;30.00
65360;PMS5003;51958;55.018;73.536;2023-05-16T12:55:07;48.00;39.00;28.25
65360;PMS5003;51958;55.018;73.536;2023-05-16T12:58:10;49.00;40.00;28.00
65360;PMS5003;51958;55.018;73.536;2023-05-16T13:01:12;44.00;37.00;27.00
65360;PMS5003;51958;55.018;73.536;2023-05-16T13:04:13;42.75;36.25;26.00
65360;PMS5003;51958;55.018;73.536;2023-05-16T13:07:18;43.40;37.00;26.00
65360;PMS5003;51958;55.018;73.536;2023-05-16T13:10:19;47.00;39.00;27.00
65360;PMS5003;51958;55.018;73.536;2023-05-16T13:13:20;49.00;40.00;27.00
65360;PMS5003;51958;55.018;73.536;2023-05-16T13:16:22;48.00;40.00;27.00
65360;PMS5003;51958;55.018;73.536;2023-05-16T13:19:23;50.00;42.00;28.00
65360;PMS5003;51958;55.018;73.536;2023-05-16T13:22:24;52.50;43.50;30.00
65360;PMS5003;51958;55.018;73.536;2023-05-16T13:25:25;53.25;44.75;31.75
65360;PMS5003;51958;55.018;73.536;2023-05-16T13:28:28;52.00;44.00;31.00
65360;PMS5003;51958;55.018;73.536;2023-05-16T13:31:29;49.00;39.00;28.00
65360;PMS5003;51958;55.018;73.536;2023-05-16T13:34:30;41.00;34.00;25.00
65360;PMS5003;51958;55.018;73.536;2023-05-16T13:37:32;37.00;32.00;22.00
65360;PMS5003;51958;55.018;73.536;2023-05-16T13:40:33;32.50;30.25;22.00
65360;PMS5003;51958;55.018;73.536;2023-05-16T13:43:35;30.75;29.00;21.50
65360;PMS5003;51958;55.018;73.536;2023-05-16T13:46:36;28.50;27.00;19.00
65360;PMS5003;51958;55.018;73.536;2023-05-16T13:49:37;29.00;26.00;19.00
65360;PMS5003;51958;55.018;73.536;2023-05-16T13:52:39;25.00;23.25;18.00
65360;PMS5003;51958;55.018;73.536;2023-05-16T13:55:40;25.00;23.00;17.00
65360;PMS5003;51958;55.018;73.536;2023-05-16T13:58:41;25.00;23.00;17.00
65360;PMS5003;51958;55.018;73.536;2023-05-16T14:01:42;23.00;22.50;15.25
65360;PMS5003;51958;55.018;73.536;2023-05-16T14:04:44;21.00;21.00;13.00
65360;PMS5003;51958;55.018;73.536;2023-05-16T14:07:48;20.33;19.00;12.00
65360;PMS5003;51958;55.018;73.536;2023-05-16T14:10:50;20.00;18.00;11.00
65360;PMS5003;51958;55.018;73.536;2023-05-16T14:13:54;19.00;18.00;10.00
65360;PMS5003;51958;55.018;73.536;2023-05-16T14:16:55;18.50;17.50;9.50
65360;PMS5003;51958;55.018;73.536;2023-05-16T14:19:57;18.50;16.50;10.00
65360;PMS5003;51958;55.018;73.536;2023-05-16T14:22:58;18.00;16.00;9.00
65360;PMS5003;51958;55.018;73.536;2023-05-16T14:25:59;19.50;18.00;10.00
65360;PMS5003;51958;55.018;73.536;2023-05-16T14:29:00;19.67;19.67;10.67
65360;PMS5003;51958;55.018;73.536;2023-05-16T14:32:02;19.00;18.00;11.00
65360;PMS5003;51958;55.018;73.536;2023-05-16T14:35:03;18.00;17.00;8.50
65360;PMS5003;51958;55.018;73.536;2023-05-16T14:38:04;18.00;18.00;9.00
65360;PMS5003;51958;55.018;73.536;2023-05-16T14:41:06;17.75;17.75;9.00
65360;PMS5003;51958;55.018;73.536;2023-05-16T14:44:07;18.00;18.00;9.00
65360;PMS5003;51958;55.018;73.536;2023-05-16T14:47:09;21.00;20.00;10.00
65360;PMS5003;51958;55.018;73.536;2023-05-16T14:50:10;19.00;19.00;11.00
65360;PMS5003;51958;55.018;73.536;2023-05-16T14:53:11;21.33;19.67;12.00
65360;PMS5003;51958;55.018;73.536;2023-05-16T14:56:12;21.00;20.00;12.00
65360;PMS5003;51958;55.018;73.536;2023-05-16T14:59:13;22.33;22.00;14.00
65360;PMS5003;51958;55.018;73.536;2023-05-16T15:02:14;23.50;20.00;13.00
65360;PMS5003;51958;55.018;73.536;2023-05-16T15:05:15;24.00;21.00;14.75
65360;PMS5003;51958;55.018;73.536;2023-05-16T15:08:21;22.00;21.00;14.00
65360;PMS5003;51958;55.018;73.536;2023-05-16T15:11:22;21.00;21.00;15.00
65360;PMS5003;51958;55.018;73.536;2023-05-16T15:14:23;21.75;20.25;14.00
65360;PMS5003;51958;55.018;73.536;2023-05-16T15:17:26;22.25;21.00;14.25
65360;PMS5003;51958;55.018;73.536;2023-05-16T15:20:28;22.00;21.00;12.67
65360;PMS5003;51958;55.018;73.536;2023-05-16T15:23:31;21.00;20.00;11.00
65360;PMS5003;51958;55.018;73.536;2023-05-16T15:26:32;20.00;20.00;9.00
65360;PMS5003;51958;55.018;73.536;2023-05-16T15:29:33;10.00;9.67;5.00
65360;PMS5003;51958;55.018;73.536;2023-05-16T15:32:34;7.00;5.75;3.00
65360;PMS5003;51958;55.018;73.536;2023-05-16T15:35:36;4.25;4.00;2.00
65360;PMS5003;51958;55.018;73.536;2023-05-16T15:38:37;6.00;6.00;3.00
65360;PMS5003;51958;55.018;73.536;2023-05-16T15:41:44;4.00;4.00;1.00
65360;PMS5003;51958;55.018;73.536;2023-05-16T15:44:45;4.00;3.00;1.00
65360;PMS5003;51958;55.018;73.536;2023-05-16T15:47:46;4.00;4.00;2.00
65360;PMS5003;51958;55.018;73.536;2023-05-16T15:50:49;7.00;6.00;3.33
65360;PMS5003;51958;55.018;73.536;2023-05-16T15:53:50;6.33;5.00;3.00
65360;PMS5003;51958;55.018;73.536;2023-05-16T15:56:52;6.00;6.00;3.00
65360;PMS5003;51958;55.018;73.536;2023-05-16T15:59:54;5.00;5.00;2.00
65360;PMS5003;51958;55.018;73.536;2023-05-16T16:02:55;3.00;3.00;1.00
65360;PMS5003;51958;55.018;73.536;2023-05-16T16:05:56;3.00;3.00;2.00
65360;PMS5003;51958;55.018;73.536;2023-05-16T16:09:00;7.00;6.75;3.00
65360;PMS5003;51958;55.018;73.536;2023-05-16T16:12:05;6.50;6.00;3.00
65360;PMS5003;51958;55.018;73.536;2023-05-16T16:15:08;6.25;5.50;2.00
65360;PMS5003;51958;55.018;73.536;2023-05-16T16:18:09;8.50;8.00;4.00
65360;PMS5003;51958;55.018;73.536;2023-05-16T16:21:11;9.00;8.00;4.00
65360;PMS5003;51958;55.018;73.536;2023-05-16T16:24:13;7.00;6.00;3.00
65360;PMS5003;51958;55.018;73.536;2023-05-16T16:27:16;4.50;4.50;1.00
65360;PMS5003;51958;55.018;73.536;2023-05-16T16:30:17;2.00;2.00;1.00
65360;PMS5003;51958;55.018;73.536;2023-05-16T16:33:19;2.50;2.00;1.00
65360;PMS5003;51958;55.018;73.536;2023-05-16T16:36:24;4.25;3.00;1.00
65360;PMS5003;51958;55.018;73.536;2023-05-16T16:39:25;3.75;3.00;0.00
65360;PMS5003;51958;55.018;73.536;2023-05-16T16:42:27;3.00;3.00;0.00
65360;PMS5003;51958;55.018;73.536;2023-05-16T16:45:35;3.00;2.00;0.00
65360;PMS5003;51958;55.018;73.536;2023-05-16T16:48:36;3.00;3.00;0.00
65360;PMS5003;51958;55.018;73.536;2023-05-16T16:51:37;2.00;1.00;0.00
65360;PMS5003;51958;55.018;73.536;2023-05-16T16:54:40;3.00;2.00;0.00
65360;PMS5003;51958;55.018;73.536;2023-05-16T16:57:42;2.00;2.00;0.00
65360;PMS5003;51958;55.018;73.536;2023-05-16T17:00:43;1.00;1.00;0.00
65360;PMS5003;51958;55.018;73.536;2023-05-16T17:03:44;3.00;1.00;0.00
65360;PMS5003;51958;55.018;73.536;2023-05-16T17:06:45;3.00;2.00;0.00
65360;PMS5003;51958;55.018;73.536;2023-05-16T17:09:47;2.00;2.00;0.00
65360;PMS5003;51958;55.018;73.536;2023-05-16T17:12:49;2.00;2.00;0.00
65360;PMS5003;51958;55.018;73.536;2023-05-16T17:15:50;1.00;1.00;1.00
65360;PMS5003;51958;55.018;73.536;2023-05-16T17:18:54;2.00;1.00;1.00
65360;PMS5003;51958;55.018;73.536;2023-05-16T17:21:55;2.00;1.00;1.00
65360;PMS5003;51958;55.018;73.536;2023-05-16T17:24:56;2.00;2.00;1.00
65360;PMS5003;51958;55.018;73.536;2023-05-16T17:27:57;3.00;3.00;1.00
65360;PMS5003;51958;55.018;73.536;2023-05-16T17:30:58;3.33;3.33;1.00